createdAt,value
2018-08-19T00:02:15.033Z,49.93
2018-08-19T00:04:43.284Z,50.05
2018-08-19T00:07:11.508Z,49.75
2018-08-19T00:09:39.740Z,49.74
2018-08-19T00:12:07.988Z,50.38
2018-08-19T00:14:36.949Z,50.61
2018-08-19T00:17:05.653Z,50.54
2018-08-19T00:19:34.872Z,50.30
2018-08-19T00:22:03.144Z,50.29
2018-08-19T00:24:31.402Z,50.32
2018-08-19T00:26:59.663Z,50.89
2018-08-19T00:29:32.949Z,51.10
2018-08-19T00:32:01.861Z,50.68
2018-08-19T00:34:32.666Z,51.28
2018-08-19T00:37:03.853Z,50.60
2018-08-19T00:39:32.186Z,50.99
2018-08-19T00:42:02.642Z,51.42
2018-08-19T00:44:31.865Z,51.21
2018-08-19T00:47:00.167Z,51.72
2018-08-19T00:49:28.413Z,51.88
2018-08-19T00:51:57.690Z,51.34
2018-08-19T00:54:26.217Z,51.55
2018-08-19T00:56:58.531Z,51.23
2018-08-19T00:59:28.423Z,52.09
2018-08-19T01:01:56.692Z,51.77
2018-08-19T01:04:24.996Z,52.24
2018-08-19T01:06:56.336Z,52.15
2018-08-19T01:09:25.920Z,52.22
2018-08-19T01:11:54.152Z,52.52
2018-08-19T01:14:22.363Z,52.52
2018-08-19T01:16:50.631Z,52.03
2018-08-19T01:19:19.288Z,51.65
2018-08-19T01:21:49.293Z,52.03
2018-08-19T01:24:17.496Z,51.92
2018-08-19T01:26:45.738Z,52.00
2018-08-19T01:29:14.404Z,53.16
2018-08-19T01:31:42.664Z,53.42
2018-08-19T01:34:12.355Z,53.27
2018-08-19T01:36:40.612Z,52.48
2018-08-19T01:39:11.763Z,53.14
2018-08-19T01:41:40.800Z,53.98
2018-08-19T01:44:11.313Z,53.71
2018-08-19T01:46:42.111Z,52.83
2018-08-19T01:49:11.175Z,52.84
2018-08-19T01:51:41.282Z,52.67
2018-08-19T01:54:19.040Z,52.95
2018-08-19T01:56:50.956Z,53.58
2018-08-19T01:59:19.141Z,52.96
2018-08-19T02:01:52.573Z,53.38
2018-08-19T02:04:21.460Z,53.35
2018-08-19T02:06:49.720Z,53.55
2018-08-19T02:09:18.922Z,53.63
2018-08-19T02:11:50.312Z,53.10
2018-08-19T02:14:19.270Z,53.91
2018-08-19T02:16:48.048Z,54.04
2018-08-19T02:19:16.280Z,53.65
2018-08-19T02:21:45.126Z,53.75
2018-08-19T02:24:13.843Z,53.72
2018-08-19T02:26:42.036Z,54.12
2018-08-19T02:29:27.095Z,54.24
2018-08-19T02:31:59.092Z,54.56
2018-08-19T02:34:35.914Z,54.75
2018-08-19T02:37:07.881Z,54.29
2018-08-19T02:39:38.360Z,55.04
2018-08-19T02:42:20.770Z,54.80
2018-08-19T02:44:48.964Z,55.35
2018-08-19T02:47:17.196Z,55.19
2018-08-19T02:49:45.453Z,55.54
2018-08-19T02:52:21.828Z,55.44
2018-08-19T02:54:50.120Z,55.34
2018-08-19T02:57:18.429Z,55.19
2018-08-19T02:59:46.651Z,56.01
2018-08-19T03:02:33.249Z,55.94
2018-08-19T03:05:03.270Z,55.96
2018-08-19T03:07:32.325Z,55.69
2018-08-19T03:10:06.933Z,55.69
2018-08-19T03:12:35.209Z,56.29
2018-08-19T03:15:03.512Z,56.43
2018-08-19T03:17:32.517Z,56.41
2018-08-19T03:20:01.276Z,56.19
2018-08-19T03:22:30.295Z,56.79
2018-08-19T03:25:01.440Z,56.24
2018-08-19T03:27:29.708Z,55.65
2018-08-19T03:29:59.304Z,55.97
2018-08-19T03:32:27.630Z,56.08
2018-08-19T03:35:04.045Z,56.40
2018-08-19T03:37:32.331Z,57.00
2018-08-19T03:40:00.573Z,57.16
2018-08-19T03:42:28.815Z,57.09
2018-08-19T03:45:04.524Z,57.60
2018-08-19T03:47:32.752Z,57.25
2018-08-19T03:50:01.281Z,57.18
2018-08-19T03:52:29.536Z,57.21
2018-08-19T03:54:57.771Z,57.57
2018-08-19T03:57:25.997Z,57.39
2018-08-19T03:59:54.243Z,56.98
2018-08-19T04:02:22.488Z,57.45
2018-08-19T04:04:50.716Z,57.75
2018-08-19T04:07:18.927Z,57.56
2018-08-19T04:09:47.167Z,58.26
2018-08-19T04:12:16.331Z,57.58
2018-08-19T04:14:44.556Z,57.67
2018-08-19T04:17:13.640Z,57.24
2018-08-19T04:19:42.082Z,56.82
2018-08-19T04:22:10.274Z,56.61
2018-08-19T04:24:38.511Z,56.38
2018-08-19T04:27:10.355Z,56.63
2018-08-19T04:29:38.991Z,56.32
2018-08-19T04:32:16.136Z,56.60
2018-08-19T04:34:44.372Z,56.83
2018-08-19T04:37:12.589Z,57.14
2018-08-19T04:39:40.893Z,57.04
2018-08-19T04:42:09.067Z,56.30
2018-08-19T04:44:37.288Z,56.89
2018-08-19T04:47:20.756Z,56.63
2018-08-19T04:49:50.284Z,56.38
2018-08-19T04:52:22.148Z,56.51
2018-08-19T04:54:50.933Z,56.62
2018-08-19T04:57:19.984Z,56.59
2018-08-19T04:59:48.212Z,57.52
2018-08-19T05:02:16.469Z,56.91
2018-08-19T05:04:44.665Z,57.39
2018-08-19T05:07:12.977Z,57.15
2018-08-19T05:09:41.248Z,57.36
2018-08-19T05:12:09.475Z,57.25
2018-08-19T05:14:37.704Z,57.13
2018-08-19T05:17:05.924Z,56.52
2018-08-19T05:19:34.149Z,56.40
2018-08-19T05:22:14.636Z,56.83
2018-08-19T05:24:44.159Z,56.56
2018-08-19T05:27:12.381Z,56.14
2018-08-19T05:29:40.611Z,56.47
2018-08-19T05:32:12.559Z,56.78
2018-08-19T05:34:41.920Z,56.32
2018-08-19T05:37:10.115Z,56.67
2018-08-19T05:39:39.975Z,57.12
2018-08-19T05:42:12.288Z,56.89
2018-08-19T05:44:41.124Z,57.21
2018-08-19T05:47:12.686Z,57.10
2018-08-19T05:49:43.195Z,56.88
2018-08-19T05:52:19.780Z,57.26
2018-08-19T05:55:03.715Z,56.36
2018-08-19T05:57:33.171Z,56.34
2018-08-19T06:00:05.569Z,55.68
2018-08-19T06:02:39.288Z,55.74
2018-08-19T06:05:07.540Z,55.99
2018-08-19T06:07:35.850Z,55.70
2018-08-19T06:10:04.429Z,55.49
2018-08-19T06:12:32.644Z,55.15
2018-08-19T06:15:01.782Z,54.87
2018-08-19T06:17:30.040Z,54.72
2018-08-19T06:19:58.348Z,53.93
2018-08-19T06:22:41.109Z,53.75
2018-08-19T06:25:10.633Z,53.40
2018-08-19T06:27:43.804Z,53.67
2018-08-19T06:30:12.521Z,53.53
2018-08-19T06:32:40.760Z,52.66
2018-08-19T06:35:09.008Z,52.74
2018-08-19T06:37:37.244Z,52.13
2018-08-19T06:40:06.775Z,51.25
2018-08-19T06:42:34.984Z,52.08
2018-08-19T06:45:03.221Z,52.18
2018-08-19T06:47:31.436Z,51.62
2018-08-19T06:50:00.666Z,51.67
2018-08-19T06:52:29.230Z,51.79
2018-08-19T06:54:57.480Z,51.40
2018-08-19T06:57:29.056Z,51.35
2018-08-19T06:59:57.339Z,50.85
2018-08-19T07:02:25.573Z,51.12
2018-08-19T07:04:53.820Z,50.10
2018-08-19T07:07:22.033Z,50.96
2018-08-19T07:09:50.280Z,49.84
2018-08-19T07:12:20.532Z,50.71
2018-08-19T07:14:49.152Z,50.10
2018-08-19T07:17:18.420Z,50.89
2018-08-19T07:19:46.720Z,50.76
2018-08-19T07:22:18.469Z,50.85
2018-08-19T07:24:46.724Z,50.89
2018-08-19T07:27:15.060Z,51.11
2018-08-19T07:29:43.331Z,51.06
2018-08-19T07:32:12.283Z,50.86
2018-08-19T07:34:40.520Z,50.83
2018-08-19T07:37:08.772Z,50.98
2018-08-19T07:39:45.516Z,50.22
2018-08-19T07:42:14.031Z,51.13
2018-08-19T07:44:42.279Z,51.23
2018-08-19T07:47:10.545Z,50.18
2018-08-19T07:49:39.168Z,50.07
2018-08-19T07:52:07.668Z,49.51
2018-08-19T07:54:35.913Z,49.33
2018-08-19T07:57:13.164Z,49.17
2018-08-19T07:59:42.117Z,49.02
2018-08-19T08:02:10.361Z,48.56
2018-08-19T08:04:40.876Z,48.22
2018-08-19T08:07:09.118Z,48.58
2018-08-19T08:09:37.387Z,49.21
2018-08-19T08:12:05.688Z,48.19
2018-08-19T08:14:33.956Z,48.64
2018-08-19T08:17:02.215Z,47.98
2018-08-19T08:19:30.436Z,47.24
2018-08-19T08:22:07.272Z,47.52
2018-08-19T08:24:35.482Z,47.61
2018-08-19T08:27:05.883Z,47.56
2018-08-19T08:29:34.194Z,47.28
2018-08-19T08:32:02.433Z,48.20
2018-08-19T08:34:30.920Z,47.89
2018-08-19T08:37:01.397Z,47.62
2018-08-19T08:39:30.165Z,47.29
2018-08-19T08:41:58.992Z,47.47
2018-08-19T08:44:27.543Z,48.05
2018-08-19T08:46:56.077Z,47.64
2018-08-19T08:49:25.161Z,46.90
2018-08-19T08:51:53.504Z,47.01
2018-08-19T08:54:21.863Z,45.96
2018-08-19T08:56:50.240Z,45.48
2018-08-19T08:59:18.658Z,45.17
2018-08-19T09:01:46.900Z,45.08
2018-08-19T09:04:15.132Z,44.91
2018-08-19T09:06:43.476Z,44.13
2018-08-19T09:09:11.744Z,44.66
2018-08-19T09:11:40.210Z,44.89
2018-08-19T09:14:08.464Z,44.27
2018-08-19T09:16:36.777Z,43.78
2018-08-19T09:19:05.221Z,44.33
2018-08-19T09:21:34.215Z,44.46
2018-08-19T09:24:02.555Z,43.78
2018-08-19T09:26:30.850Z,43.96
2018-08-19T09:28:59.242Z,43.97
2018-08-19T09:31:27.513Z,43.56
2018-08-19T09:33:56.537Z,43.62
2018-08-19T09:36:25.265Z,42.88
2018-08-19T09:38:53.885Z,43.50
2018-08-19T09:41:22.597Z,44.00
2018-08-19T09:43:51.051Z,43.80
2018-08-19T09:46:19.576Z,43.26
2018-08-19T09:48:48.306Z,42.54
2018-08-19T09:51:16.879Z,42.79
2018-08-19T09:53:45.259Z,42.72
2018-08-19T09:56:14.263Z,41.27
2018-08-19T09:58:46.877Z,40.99
2018-08-19T10:01:20.500Z,42.58
2018-08-19T10:03:49.173Z,40.91
2018-08-19T10:06:18.470Z,42.05
2018-08-19T10:08:46.750Z,40.66
2018-08-19T10:11:15.344Z,40.85
2018-08-19T10:13:44.814Z,40.58
2018-08-19T10:16:13.017Z,40.12
2018-08-19T10:18:41.840Z,40.54
2018-08-19T10:21:14.247Z,39.91
2018-08-19T10:23:43.463Z,40.09
2018-08-19T10:26:11.974Z,40.72
2018-08-19T10:28:40.656Z,39.66
2018-08-19T10:31:23.941Z,39.31
2018-08-19T10:33:52.451Z,39.54
2018-08-19T10:36:21.348Z,39.17
2018-08-19T10:38:50.135Z,39.35
2018-08-19T10:41:18.830Z,39.39
2018-08-19T10:43:47.792Z,38.99
2018-08-19T10:46:16.787Z,38.91
2018-08-19T10:48:45.392Z,38.76
2018-08-19T10:51:14.232Z,38.88
2018-08-19T10:53:44.303Z,38.77
2018-08-19T10:56:13.145Z,38.70
2018-08-19T10:58:46.369Z,38.39
2018-08-19T11:01:15.160Z,38.63
2018-08-19T11:03:43.606Z,39.45
2018-08-19T11:06:12.392Z,39.12
2018-08-19T11:08:45.160Z,38.26
2018-08-19T11:11:13.786Z,38.23
2018-08-19T11:13:42.664Z,38.90
2018-08-19T11:16:10.919Z,38.09
2018-08-19T11:18:43.820Z,37.46
2018-08-19T11:21:20.412Z,37.36
2018-08-19T11:23:49.645Z,37.60
2018-08-19T11:26:17.916Z,37.75
2018-08-19T11:28:54.717Z,38.10
2018-08-19T11:31:28.503Z,37.41
2018-08-19T11:34:00.564Z,38.00
2018-08-19T11:36:35.086Z,38.06
2018-08-19T11:39:04.937Z,37.09
2018-08-19T11:41:35.304Z,36.36
2018-08-19T11:44:12.309Z,36.31
2018-08-19T11:46:40.548Z,36.70
2018-08-19T11:49:13.244Z,37.21
2018-08-19T11:51:55.017Z,36.94
2018-08-19T11:54:24.473Z,36.98
2018-08-19T11:57:01.208Z,37.20
2018-08-19T11:59:48.928Z,35.98
2018-08-19T12:02:25.057Z,35.60
2018-08-19T12:04:53.796Z,35.90
2018-08-19T12:07:22.277Z,37.00
2018-08-19T12:09:57.128Z,36.50
2018-08-19T12:12:42.149Z,35.35
2018-08-19T12:15:10.384Z,36.62
2018-08-19T12:17:39.275Z,35.16
2018-08-19T12:20:07.677Z,35.26
2018-08-19T12:22:36.285Z,34.88
2018-08-19T12:25:04.771Z,34.85
2018-08-19T12:27:33.199Z,34.39
2018-08-19T12:30:06.355Z,35.50
2018-08-19T12:32:35.377Z,33.96
2018-08-19T12:35:04.436Z,34.20
2018-08-19T12:37:33.553Z,33.40
2018-08-19T12:40:02.020Z,34.76
2018-08-19T12:42:32.284Z,35.78
2018-08-19T12:45:06.440Z,33.91
2018-08-19T12:47:36.036Z,33.85
2018-08-19T12:50:09.307Z,34.64
2018-08-19T12:52:37.663Z,34.57
2018-08-19T12:55:07.204Z,35.26
2018-08-19T12:57:36.297Z,33.70
2018-08-19T13:00:17.901Z,33.41
2018-08-19T13:02:47.899Z,33.43
2018-08-19T13:05:19.528Z,34.28
2018-08-19T13:07:49.122Z,34.46
2018-08-19T13:10:17.845Z,34.04
2018-08-19T13:12:49.911Z,33.44
2018-08-19T13:15:18.474Z,33.03
2018-08-19T13:17:46.769Z,32.95
2018-08-19T13:20:15.199Z,32.71
2018-08-19T13:22:51.254Z,32.63
2018-08-19T13:25:21.547Z,33.70
2018-08-19T13:27:50.006Z,33.52
2018-08-19T13:30:19.305Z,32.73
2018-08-19T13:32:48.045Z,32.77
2018-08-19T13:35:17.661Z,33.80
2018-08-19T13:37:46.085Z,32.93
2018-08-19T13:40:15.024Z,32.19
2018-08-19T13:42:43.511Z,32.64
2018-08-19T13:45:13.435Z,31.66
2018-08-19T13:47:43.381Z,31.83
2018-08-19T13:50:12.052Z,32.30
2018-08-19T13:52:41.001Z,32.21
2018-08-19T13:55:11.410Z,32.38
2018-08-19T13:57:40.494Z,32.27
2018-08-19T14:00:15.580Z,32.22
2018-08-19T14:02:44.908Z,31.84
2018-08-19T14:05:14.008Z,32.45
2018-08-19T14:07:42.780Z,31.72
2018-08-19T14:10:12.468Z,31.79
2018-08-19T14:12:41.076Z,31.60
2018-08-19T14:15:09.765Z,31.56
2018-08-19T14:17:38.125Z,32.29
2018-08-19T14:20:07.873Z,32.05
2018-08-19T14:22:36.317Z,31.23
2018-08-19T14:25:05.664Z,32.21
2018-08-19T14:27:34.204Z,31.33
2018-08-19T14:30:03.521Z,32.53
2018-08-19T14:32:33.278Z,32.98
2018-08-19T14:35:03.699Z,32.11
2018-08-19T14:37:32.748Z,31.90
2018-08-19T14:40:02.018Z,32.20
2018-08-19T14:42:30.470Z,31.54
2018-08-19T14:44:59.783Z,32.06
2018-08-19T14:47:28.516Z,31.44
2018-08-19T14:49:58.075Z,31.32
2018-08-19T14:52:27.412Z,31.16
2018-08-19T14:54:55.913Z,31.50
2018-08-19T14:57:24.545Z,31.68
2018-08-19T14:59:52.929Z,31.91
2018-08-19T15:02:21.352Z,31.68
2018-08-19T15:04:49.861Z,31.97
2018-08-19T15:07:18.307Z,32.25
2018-08-19T15:09:51.200Z,32.05
2018-08-19T15:12:20.978Z,31.83
2018-08-19T15:14:49.872Z,31.90
2018-08-19T15:17:18.143Z,31.71
2018-08-19T15:19:49.065Z,31.99
2018-08-19T15:22:17.643Z,32.36
2018-08-19T15:24:46.197Z,32.17
2018-08-19T15:27:14.577Z,31.85
2018-08-19T15:29:45.922Z,31.36
2018-08-19T15:32:14.545Z,31.57
2018-08-19T15:34:42.912Z,31.79
2018-08-19T15:37:11.360Z,31.78
2018-08-19T15:39:41.120Z,32.21
2018-08-19T15:42:10.340Z,32.29
2018-08-19T15:44:38.841Z,31.71
2018-08-19T15:47:08.186Z,31.13
2018-08-19T15:49:37.173Z,31.87
2018-08-19T15:52:07.096Z,31.71
2018-08-19T15:54:36.658Z,31.85
2018-08-19T15:57:05.148Z,32.11
2018-08-19T15:59:34.698Z,32.05
2018-08-19T16:02:05.284Z,31.45
2018-08-19T16:04:33.837Z,31.35
2018-08-19T16:07:02.673Z,32.13
2018-08-19T16:09:39.221Z,31.45
2018-08-19T16:12:07.663Z,31.43
2018-08-19T16:14:36.075Z,30.96
2018-08-19T16:17:05.308Z,31.50
2018-08-19T16:19:33.633Z,31.65
2018-08-19T16:22:02.359Z,31.62
2018-08-19T16:24:33.658Z,30.99
2018-08-19T16:27:03.873Z,30.89
2018-08-19T16:29:33.857Z,31.12
2018-08-19T16:32:03.012Z,30.98
2018-08-19T16:34:31.818Z,31.93
2018-08-19T16:37:00.180Z,31.56
2018-08-19T16:39:28.552Z,31.53
2018-08-19T16:41:56.856Z,31.83
2018-08-19T16:44:25.116Z,31.39
2018-08-19T16:46:53.403Z,32.14
2018-08-19T16:49:21.609Z,31.42
2018-08-19T16:51:49.867Z,31.46
2018-08-19T16:54:18.168Z,32.78
2018-08-19T16:56:46.508Z,32.75
2018-08-19T16:59:14.720Z,32.24
2018-08-19T17:01:42.985Z,32.41
2018-08-19T17:04:11.263Z,32.37
2018-08-19T17:06:39.553Z,32.43
2018-08-19T17:09:08.686Z,32.45
2018-08-19T17:11:36.964Z,32.78
2018-08-19T17:14:05.216Z,32.79
2018-08-19T17:16:33.457Z,32.35
2018-08-19T17:19:01.775Z,32.19
2018-08-19T17:21:30.079Z,32.92
2018-08-19T17:23:58.327Z,33.13
2018-08-19T17:26:26.709Z,32.71
2018-08-19T17:28:54.964Z,33.55
2018-08-19T17:31:23.197Z,33.67
2018-08-19T17:33:51.432Z,33.18
2018-08-19T17:36:26.069Z,33.82
2018-08-19T17:38:55.970Z,33.73
2018-08-19T17:41:24.352Z,33.19
2018-08-19T17:43:52.560Z,33.56
2018-08-19T17:46:21.215Z,34.01
2018-08-19T17:48:49.696Z,33.64
2018-08-19T17:51:29.061Z,33.31
2018-08-19T17:53:57.299Z,33.24
2018-08-19T17:56:25.622Z,33.10
2018-08-19T17:58:53.876Z,33.26
2018-08-19T18:01:22.573Z,34.23
2018-08-19T18:03:50.819Z,33.94
2018-08-19T18:06:19.168Z,33.56
2018-08-19T18:08:51.572Z,34.41
2018-08-19T18:11:20.187Z,33.52
2018-08-19T18:13:48.837Z,33.95
2018-08-19T18:16:17.104Z,34.50
2018-08-19T18:18:46.098Z,34.07
2018-08-19T18:21:14.452Z,34.46
2018-08-19T18:23:44.348Z,34.83
2018-08-19T18:26:12.632Z,34.87
2018-08-19T18:28:43.941Z,34.84
2018-08-19T18:31:13.066Z,35.55
2018-08-19T18:34:06.260Z,34.54
2018-08-19T18:36:35.344Z,34.81
2018-08-19T18:39:05.353Z,35.62
2018-08-19T18:41:34.857Z,35.38
2018-08-19T18:44:04.336Z,35.49
2018-08-19T18:46:33.058Z,35.32
2018-08-19T18:49:05.305Z,36.49
2018-08-19T18:51:33.616Z,36.34
2018-08-19T18:54:01.871Z,35.91
2018-08-19T18:56:30.377Z,35.92
2018-08-19T18:58:58.873Z,36.55
2018-08-19T19:01:27.075Z,37.19
2018-08-19T19:03:55.324Z,36.54
2018-08-19T19:06:23.540Z,37.12
2018-08-19T19:08:51.893Z,37.24
2018-08-19T19:11:21.421Z,36.83
2018-08-19T19:13:50.303Z,37.56
2018-08-19T19:16:24.824Z,37.78
2018-08-19T19:18:53.250Z,37.92
2018-08-19T19:21:21.472Z,38.06
2018-08-19T19:23:49.713Z,37.73
2018-08-19T19:26:18.720Z,38.28
2018-08-19T19:28:46.960Z,37.78
2018-08-19T19:31:16.532Z,38.20
2018-08-19T19:33:44.807Z,38.72
2018-08-19T19:36:19.927Z,38.60
2018-08-19T19:38:53.657Z,38.78
2018-08-19T19:41:24.502Z,38.46
2018-08-19T19:43:52.773Z,38.50
2018-08-19T19:46:21.677Z,39.00
2018-08-19T19:48:50.149Z,38.73
2018-08-19T19:51:18.412Z,38.56
2018-08-19T19:53:46.731Z,38.92
2018-08-19T19:56:19.044Z,39.73
2018-08-19T19:58:48.347Z,39.40
2018-08-19T20:01:17.026Z,39.77
2018-08-19T20:03:50.665Z,40.29
2018-08-19T20:06:19.156Z,40.39
2018-08-19T20:08:47.404Z,39.92
2018-08-19T20:11:20.907Z,40.63
2018-08-19T20:13:49.485Z,39.99
2018-08-19T20:16:17.875Z,40.81
2018-08-19T20:18:46.122Z,40.22
2018-08-19T20:21:19.677Z,40.38
2018-08-19T20:23:47.936Z,41.24
2018-08-19T20:26:16.173Z,41.15
2018-08-19T20:28:44.417Z,41.55
2018-08-19T20:31:12.652Z,41.21
2018-08-19T20:33:40.919Z,41.51
2018-08-19T20:36:09.140Z,41.38
2018-08-19T20:38:37.952Z,41.43
2018-08-19T20:41:07.077Z,42.04
2018-08-19T20:43:35.364Z,41.83
2018-08-19T20:46:03.612Z,42.56
2018-08-19T20:48:31.857Z,42.59
2018-08-19T20:51:00.668Z,42.07
2018-08-19T20:53:28.912Z,42.79
2018-08-19T20:55:57.137Z,42.59
2018-08-19T20:58:25.376Z,43.66
2018-08-19T21:00:53.605Z,43.69
2018-08-19T21:03:21.856Z,43.60
2018-08-19T21:05:50.081Z,43.76
2018-08-19T21:08:19.136Z,43.71
2018-08-19T21:10:48.192Z,43.80
2018-08-19T21:13:18.658Z,44.32
2018-08-19T21:15:48.229Z,44.44
2018-08-19T21:18:16.464Z,44.35
2018-08-19T21:20:44.871Z,44.73
2018-08-19T21:23:13.124Z,44.56
2018-08-19T21:25:46.849Z,44.20
2018-08-19T21:28:15.472Z,44.16
2018-08-19T21:30:43.692Z,44.75
2018-08-19T21:33:11.912Z,44.03
2018-08-19T21:35:45.552Z,44.89
2018-08-19T21:38:13.800Z,44.86
2018-08-19T21:40:42.099Z,45.21
2018-08-19T21:43:10.579Z,44.73
2018-08-19T21:45:39.111Z,45.11
2018-08-19T21:48:11.164Z,45.25
2018-08-19T21:50:39.419Z,45.54
2018-08-19T21:53:10.702Z,46.19
2018-08-19T21:55:40.296Z,45.93
2018-08-19T21:58:08.600Z,46.20
2018-08-19T22:00:41.995Z,46.09
2018-08-19T22:03:22.315Z,46.63
2018-08-19T22:05:51.811Z,46.52
2018-08-19T22:08:20.060Z,47.12
2018-08-19T22:10:49.279Z,47.85
2018-08-19T22:13:17.511Z,47.31
2018-08-19T22:15:46.575Z,46.92
2018-08-19T22:18:17.597Z,47.57
2018-08-19T22:20:58.180Z,47.08
2018-08-19T22:24:01.857Z,47.48
2018-08-19T22:26:30.083Z,47.39
2018-08-19T22:29:10.417Z,47.81
2018-08-19T22:31:38.626Z,47.76
2018-08-19T22:34:06.868Z,47.97
2018-08-19T22:36:35.084Z,48.19
2018-08-19T22:39:03.652Z,48.12
2018-08-19T22:41:33.314Z,48.03
2018-08-19T22:44:01.556Z,48.50
2018-08-19T22:46:29.878Z,49.11
2018-08-19T22:48:58.604Z,48.51
2018-08-19T22:51:30.887Z,49.57
2018-08-19T22:53:59.172Z,49.44
2018-08-19T22:56:27.372Z,49.24
2018-08-19T22:58:55.617Z,49.95
2018-08-19T23:01:27.208Z,49.85
2018-08-19T23:03:59.432Z,49.66
2018-08-19T23:06:28.248Z,49.41
2018-08-19T23:08:56.488Z,50.18
2018-08-19T23:11:27.414Z,50.06
2018-08-19T23:14:06.968Z,49.60
2018-08-19T23:16:35.194Z,50.27
2018-08-19T23:19:03.433Z,49.74
2018-08-19T23:21:31.672Z,49.90
2018-08-19T23:23:59.911Z,50.27
2018-08-19T23:26:28.132Z,50.59
2018-08-19T23:28:56.351Z,50.13
2018-08-19T23:31:24.576Z,49.99
2018-08-19T23:33:52.796Z,50.16
2018-08-19T23:36:21.032Z,50.45
2018-08-19T23:38:49.284Z,50.30
2018-08-19T23:41:17.535Z,50.65
2018-08-19T23:43:45.757Z,50.12
2018-08-19T23:46:13.987Z,50.41
2018-08-19T23:48:42.252Z,50.83
2018-08-19T23:51:11.360Z,50.50
2018-08-19T23:53:39.808Z,50.47
2018-08-19T23:56:08.032Z,50.20
2018-08-19T23:58:36.232Z,50.43
